createdAt,value
2023-05-05T00:01:29.272Z,96350.72
2023-05-05T00:03:56.000Z,96348.56
2023-05-05T00:06:23.034Z,96351.97
2023-05-05T00:08:49.668Z,96351.44
2023-05-05T00:11:16.354Z,96352.03
2023-05-05T00:13:43.016Z,96352.38
2023-05-05T00:16:09.729Z,96344.47
2023-05-05T00:18:36.438Z,96346.25
2023-05-05T00:21:04.409Z,96345.78
2023-05-05T00:23:31.024Z,96350.56
2023-05-05T00:25:57.648Z,96349.53
2023-05-05T00:28:24.268Z,96342.59
2023-05-05T00:30:51.231Z,96346.41
2023-05-05T00:33:17.863Z,96345.53
2023-05-05T00:35:44.471Z,96350.31
2023-05-05T00:38:11.138Z,96344.31
2023-05-05T00:40:38.288Z,96344.88
2023-05-05T00:43:05.360Z,96350.13
2023-05-05T00:45:32.159Z,96343.88
2023-05-05T00:48:00.205Z,96347.22
2023-05-05T00:50:29.343Z,96342.94
2023-05-05T00:53:03.971Z,96345.41
2023-05-05T00:55:31.448Z,96337.06
2023-05-05T00:57:59.049Z,96337.06
2023-05-05T01:00:26.487Z,96338.75
2023-05-05T01:02:53.539Z,96337.50
2023-05-05T01:05:22.449Z,96335.31
2023-05-05T01:08:13.697Z,96334.72
2023-05-05T01:10:53.144Z,96333.59
2023-05-05T01:13:45.298Z,96336.06
2023-05-05T01:16:27.557Z,96334.59
2023-05-05T01:19:31.295Z,96333.00
2023-05-05T01:22:02.420Z,96332.81
2023-05-05T01:24:44.226Z,96332.25
2023-05-05T01:27:27.315Z,96341.38
2023-05-05T01:30:31.284Z,96335.78
2023-05-05T01:33:04.145Z,96339.03
2023-05-05T01:35:42.517Z,96333.91
2023-05-05T01:38:17.519Z,96340.44
2023-05-05T01:40:49.116Z,96345.78
2023-05-05T01:43:19.126Z,96344.63
2023-05-05T01:45:48.721Z,96335.72
2023-05-05T01:48:18.367Z,96340.47
2023-05-05T01:50:47.164Z,96330.09
2023-05-05T01:53:17.616Z,96332.59
2023-05-05T01:55:46.910Z,96333.16
2023-05-05T01:58:14.983Z,96327.66
2023-05-05T02:00:42.816Z,96327.03
2023-05-05T02:03:12.213Z,96324.06
2023-05-05T02:05:40.198Z,96330.56
2023-05-05T02:08:09.026Z,96331.50
2023-05-05T02:10:38.152Z,96328.59
2023-05-05T02:13:05.798Z,96329.75
2023-05-05T02:15:34.145Z,96326.84
2023-05-05T02:18:02.107Z,96324.38
2023-05-05T02:20:31.207Z,96325.94
2023-05-05T02:22:59.263Z,96330.44
2023-05-05T02:25:38.668Z,96328.38
2023-05-05T02:28:07.332Z,96326.22
2023-05-05T02:30:36.566Z,96321.13
2023-05-05T02:33:11.774Z,96325.41
2023-05-05T02:35:41.310Z,96326.84
2023-05-05T02:38:17.336Z,96329.25
2023-05-05T02:40:46.954Z,96328.25
2023-05-05T02:43:18.265Z,96335.06
2023-05-05T02:45:45.292Z,96330.19
2023-05-05T02:48:13.146Z,96337.47
2023-05-05T02:50:40.121Z,96336.00
2023-05-05T02:53:06.913Z,96337.72
2023-05-05T02:55:45.569Z,96337.53
2023-05-05T02:58:24.478Z,96329.03
2023-05-05T03:01:01.995Z,96330.06
2023-05-05T03:03:44.866Z,96332.13
2023-05-05T03:06:16.527Z,96335.88
2023-05-05T03:09:04.989Z,96349.34
2023-05-05T03:11:49.764Z,96338.38
2023-05-05T03:14:19.887Z,96342.63
2023-05-05T03:16:47.671Z,96340.66
2023-05-05T03:19:19.838Z,96348.78
2023-05-05T03:21:46.528Z,96349.34
2023-05-05T03:24:17.139Z,96345.03
2023-05-05T03:26:45.923Z,96357.38
2023-05-05T03:29:16.081Z,96356.94
2023-05-05T03:31:42.855Z,96366.16
2023-05-05T03:34:09.675Z,96363.84
2023-05-05T03:36:36.475Z,96365.94
2023-05-05T03:39:03.739Z,96376.47
2023-05-05T03:41:30.463Z,96372.03
2023-05-05T03:43:57.141Z,96362.59
2023-05-05T03:46:23.788Z,96366.63
2023-05-05T03:48:51.568Z,96370.97
2023-05-05T03:51:18.347Z,96375.66
2023-05-05T03:53:45.097Z,96373.03
2023-05-05T03:56:11.753Z,96374.66
2023-05-05T03:58:38.363Z,96376.78
2023-05-05T04:01:05.155Z,96374.06
2023-05-05T04:03:31.885Z,96377.91
2023-05-05T04:05:58.602Z,96377.88
2023-05-05T04:08:25.268Z,96367.91
2023-05-05T04:10:51.859Z,96372.47
2023-05-05T04:13:18.608Z,96368.44
2023-05-05T04:15:48.478Z,96374.38
2023-05-05T04:18:15.316Z,96376.22
2023-05-05T04:20:42.020Z,96380.56
2023-05-05T04:23:08.764Z,96374.63
2023-05-05T04:25:35.494Z,96376.88
2023-05-05T04:28:02.132Z,96381.47
2023-05-05T04:30:28.836Z,96384.97
2023-05-05T04:32:55.513Z,96386.53
2023-05-05T04:35:22.468Z,96391.91
2023-05-05T04:37:49.104Z,96389.31
2023-05-05T04:40:15.718Z,96388.81
2023-05-05T04:42:42.327Z,96388.47
2023-05-05T04:45:09.258Z,96385.16
2023-05-05T04:47:39.529Z,96383.56
2023-05-05T04:50:07.346Z,96384.56
2023-05-05T04:52:34.297Z,96383.97
2023-05-05T04:55:01.301Z,96384.19
2023-05-05T04:57:29.508Z,96381.97
2023-05-05T04:59:56.203Z,96381.06
2023-05-05T05:02:22.896Z,96390.66
2023-05-05T05:04:49.624Z,96385.22
2023-05-05T05:07:16.241Z,96389.97
2023-05-05T05:09:42.860Z,96393.13
2023-05-05T05:12:09.850Z,96383.91
2023-05-05T05:14:40.128Z,96383.94
2023-05-05T05:17:07.341Z,96391.63
2023-05-05T05:19:34.310Z,96396.88
2023-05-05T05:22:00.934Z,96388.88
2023-05-05T05:24:27.615Z,96385.28
2023-05-05T05:26:54.245Z,96391.41
2023-05-05T05:29:20.875Z,96386.00
2023-05-05T05:31:47.547Z,96386.22
2023-05-05T05:34:14.212Z,96385.81
2023-05-05T05:36:40.831Z,96386.38
2023-05-05T05:39:07.487Z,96391.03
2023-05-05T05:41:34.200Z,96396.03
2023-05-05T05:44:00.857Z,96391.72
2023-05-05T05:46:27.544Z,96388.84
2023-05-05T05:48:54.254Z,96395.56
2023-05-05T05:51:20.859Z,96395.38
2023-05-05T05:53:47.494Z,96393.97
2023-05-05T05:56:14.162Z,96386.50
2023-05-05T05:58:40.799Z,96398.63
2023-05-05T06:01:07.512Z,96395.97
2023-05-05T06:03:35.355Z,96400.97
2023-05-05T06:06:02.190Z,96397.25
2023-05-05T06:08:28.829Z,96394.19
2023-05-05T06:10:55.472Z,96396.75
2023-05-05T06:13:22.096Z,96386.25
2023-05-05T06:15:48.875Z,96389.97
2023-05-05T06:18:15.564Z,96394.41
2023-05-05T06:20:43.519Z,96395.19
2023-05-05T06:23:10.327Z,96395.44
2023-05-05T06:25:37.241Z,96392.56
2023-05-05T06:28:05.715Z,96392.31
2023-05-05T06:30:32.888Z,96390.84
2023-05-05T06:32:59.890Z,96399.97
2023-05-05T06:35:26.772Z,96389.28
2023-05-05T06:37:53.456Z,96391.28
2023-05-05T06:40:20.155Z,96387.84
2023-05-05T06:42:46.844Z,96384.94
2023-05-05T06:45:13.548Z,96377.47
2023-05-05T06:47:40.212Z,96386.47
2023-05-05T06:50:08.987Z,96381.47
2023-05-05T06:52:36.134Z,96381.88
2023-05-05T06:55:03.859Z,96382.44
2023-05-05T06:57:30.562Z,96375.56
2023-05-05T06:59:57.235Z,96372.72
2023-05-05T07:02:25.980Z,96376.28
2023-05-05T07:04:55.461Z,96376.00
2023-05-05T07:07:22.318Z,96370.06
2023-05-05T07:09:49.092Z,96365.69
2023-05-05T07:12:15.817Z,96374.59
2023-05-05T07:14:42.495Z,96368.56
2023-05-05T07:17:09.086Z,96363.50
2023-05-05T07:19:35.701Z,96372.06
2023-05-05T07:22:02.308Z,96363.44
2023-05-05T07:24:29.055Z,96365.66
2023-05-05T07:26:55.790Z,96358.63
2023-05-05T07:29:22.387Z,96358.81
2023-05-05T07:31:49.034Z,96365.19
2023-05-05T07:34:15.733Z,96357.03
2023-05-05T07:36:42.388Z,96357.66
2023-05-05T07:39:09.110Z,96354.44
2023-05-05T07:41:35.846Z,96357.09
2023-05-05T07:44:02.506Z,96350.66
2023-05-05T07:46:29.137Z,96355.50
2023-05-05T07:48:55.904Z,96346.44
2023-05-05T07:51:22.646Z,96351.53
2023-05-05T07:53:49.293Z,96341.03
2023-05-05T07:56:15.974Z,96349.22
2023-05-05T07:58:42.668Z,96353.38
2023-05-05T08:01:11.138Z,96353.50
2023-05-05T08:03:37.971Z,96355.09
2023-05-05T08:06:12.002Z,96351.00
2023-05-05T08:08:38.651Z,96345.63
2023-05-05T08:11:06.682Z,96353.81
2023-05-05T08:13:34.526Z,96356.34
2023-05-05T08:16:01.318Z,96336.22
2023-05-05T08:18:27.985Z,96340.50
2023-05-05T08:20:54.837Z,96332.72
2023-05-05T08:23:21.655Z,96340.22
2023-05-05T08:25:48.318Z,96341.22
2023-05-05T08:28:14.966Z,96339.72
2023-05-05T08:30:42.793Z,96337.03
2023-05-05T08:33:09.521Z,96329.91
2023-05-05T08:35:36.166Z,96332.97
2023-05-05T08:38:02.901Z,96334.41
2023-05-05T08:40:33.892Z,96325.50
2023-05-05T08:43:01.468Z,96336.16
2023-05-05T08:45:29.210Z,96335.84
2023-05-05T08:48:01.449Z,96331.91
2023-05-05T08:50:29.515Z,96334.78
2023-05-05T08:53:12.836Z,96338.28
2023-05-05T08:55:49.896Z,96338.38
2023-05-05T08:58:18.279Z,96339.72
2023-05-05T09:00:47.873Z,96335.69
2023-05-05T09:03:15.907Z,96332.66
2023-05-05T09:05:44.113Z,96336.19
2023-05-05T09:08:11.643Z,96328.25
2023-05-05T09:10:41.599Z,96325.53
2023-05-05T09:13:08.561Z,96323.50
2023-05-05T09:15:35.405Z,96319.50
2023-05-05T09:18:02.505Z,96307.28
2023-05-05T09:20:37.890Z,96312.97
2023-05-05T09:23:18.833Z,96309.66
2023-05-05T09:25:48.188Z,96306.75
2023-05-05T09:28:17.722Z,96300.72
2023-05-05T09:30:47.624Z,96290.94
2023-05-05T09:33:14.409Z,96293.84
2023-05-05T09:35:55.077Z,96290.06
2023-05-05T09:38:23.709Z,96285.31
2023-05-05T09:40:52.034Z,96285.50
2023-05-05T09:43:21.544Z,96279.13
2023-05-05T09:45:51.714Z,96278.16
2023-05-05T09:48:30.188Z,96273.75
2023-05-05T09:50:58.222Z,96274.63
2023-05-05T09:53:26.046Z,96275.28
2023-05-05T09:56:01.011Z,96283.00
2023-05-05T09:58:29.999Z,96278.41
2023-05-05T10:00:57.976Z,96275.41
2023-05-05T10:03:25.159Z,96275.94
2023-05-05T10:05:56.890Z,96271.84
2023-05-05T10:08:26.424Z,96286.13
2023-05-05T10:11:07.117Z,96272.53
2023-05-05T10:13:39.511Z,96269.09
2023-05-05T10:16:08.420Z,96259.66
2023-05-05T10:18:35.952Z,96262.97
2023-05-05T10:21:04.167Z,96262.16
2023-05-05T10:24:09.412Z,96264.22
2023-05-05T10:26:42.428Z,96251.13
2023-05-05T10:29:17.678Z,96253.53
2023-05-05T10:31:52.853Z,96248.91
2023-05-05T10:34:41.043Z,96244.41
2023-05-05T10:37:07.836Z,96238.19
2023-05-05T10:39:36.781Z,96241.25
2023-05-05T10:42:03.550Z,96239.00
2023-05-05T10:44:33.200Z,96229.00
2023-05-05T10:47:01.909Z,96227.72
2023-05-05T10:49:57.330Z,96224.00
2023-05-05T10:52:31.167Z,96221.63
2023-05-05T10:55:16.746Z,96211.06
2023-05-05T10:57:45.862Z,96211.47
2023-05-05T11:00:40.501Z,96208.38
2023-05-05T11:03:16.649Z,96206.03
2023-05-05T11:06:08.262Z,96200.44
2023-05-05T11:08:36.705Z,96192.50
2023-05-05T11:11:03.836Z,96191.72
2023-05-05T11:13:31.224Z,96191.03
2023-05-05T11:16:00.115Z,96192.66
2023-05-05T11:18:39.798Z,96203.59
2023-05-05T11:21:17.834Z,96194.16
2023-05-05T11:23:46.292Z,96194.91
2023-05-05T11:26:14.379Z,96182.41
2023-05-05T11:29:10.204Z,96194.94
2023-05-05T11:31:36.902Z,96187.13
2023-05-05T11:34:29.044Z,96187.81
2023-05-05T11:37:07.807Z,96184.00
2023-05-05T11:40:16.702Z,96173.00
2023-05-05T11:42:43.337Z,96180.09
2023-05-05T11:45:24.574Z,96172.63
2023-05-05T11:47:51.265Z,96164.25
2023-05-05T11:50:23.160Z,96165.47
2023-05-05T11:52:49.982Z,96162.56
2023-05-05T11:55:20.277Z,96160.38
2023-05-05T11:57:46.913Z,96155.56
2023-05-05T12:00:14.078Z,96152.50
2023-05-05T12:02:40.770Z,96147.44
2023-05-05T12:05:08.058Z,96148.97
2023-05-05T12:07:34.685Z,96141.97
2023-05-05T12:10:01.740Z,96151.19
2023-05-05T12:12:37.008Z,96156.19
2023-05-05T12:15:04.604Z,96148.63
2023-05-05T12:17:39.883Z,96152.22
2023-05-05T12:20:07.668Z,96144.59
2023-05-05T12:22:34.796Z,96149.47
2023-05-05T12:25:05.121Z,96147.84
2023-05-05T12:27:31.991Z,96137.75
2023-05-05T12:30:12.253Z,96142.06
2023-05-05T12:32:39.038Z,96141.22
2023-05-05T12:35:07.861Z,96134.28
2023-05-05T12:37:35.075Z,96129.66
2023-05-05T12:40:01.711Z,96122.72
2023-05-05T12:42:28.382Z,96125.69
2023-05-05T12:44:55.028Z,96118.59
2023-05-05T12:47:32.653Z,96120.28
2023-05-05T12:50:00.368Z,96118.94
2023-05-05T12:52:42.421Z,96113.22
2023-05-05T12:55:10.482Z,96112.34
2023-05-05T12:57:37.456Z,96103.38
2023-05-05T13:00:18.104Z,96097.59
2023-05-05T13:02:44.893Z,96096.66
2023-05-05T13:05:12.008Z,96105.22
2023-05-05T13:07:50.790Z,96088.94
2023-05-05T13:10:17.451Z,96087.16
2023-05-05T13:12:44.108Z,96082.72
2023-05-05T13:15:11.504Z,96077.13
2023-05-05T13:17:38.193Z,96081.97
2023-05-05T13:20:06.649Z,96081.34
2023-05-05T13:22:33.274Z,96080.69
2023-05-05T13:24:59.887Z,96066.91
2023-05-05T13:27:27.140Z,96066.66
2023-05-05T13:29:53.753Z,96063.63
2023-05-05T13:32:20.386Z,96060.47
2023-05-05T13:34:47.039Z,96059.16
2023-05-05T13:37:13.748Z,96050.47
2023-05-05T13:39:40.477Z,96042.97
2023-05-05T13:42:07.285Z,96045.16
2023-05-05T13:44:35.310Z,96040.00
2023-05-05T13:47:01.990Z,96039.13
2023-05-05T13:49:28.673Z,96022.91
2023-05-05T13:51:56.346Z,96027.00
2023-05-05T13:54:23.070Z,96023.94
2023-05-05T13:56:49.704Z,96020.63
2023-05-05T13:59:16.319Z,96014.25
2023-05-05T14:01:42.996Z,96008.59
2023-05-05T14:04:09.686Z,96018.41
2023-05-05T14:06:36.460Z,96014.34
2023-05-05T14:09:06.114Z,96012.22
2023-05-05T14:11:33.061Z,96011.25
2023-05-05T14:13:59.692Z,96007.19
2023-05-05T14:16:26.425Z,96011.50
2023-05-05T14:18:53.161Z,96008.78
2023-05-05T14:21:19.796Z,96017.19
2023-05-05T14:23:46.545Z,96000.38
2023-05-05T14:26:13.245Z,96003.97
2023-05-05T14:28:39.898Z,96010.81
2023-05-05T14:31:06.528Z,95997.78
2023-05-05T14:33:33.155Z,95989.09
2023-05-05T14:35:59.979Z,95992.75
2023-05-05T14:38:26.695Z,96001.19
2023-05-05T14:40:53.372Z,95997.66
2023-05-05T14:43:20.771Z,96003.03
2023-05-05T14:45:47.519Z,95999.00
2023-05-05T14:48:14.178Z,95997.44
2023-05-05T14:50:42.486Z,95992.81
2023-05-05T14:53:09.123Z,95998.34
2023-05-05T14:55:35.872Z,95994.25
2023-05-05T14:58:02.480Z,95993.09
2023-05-05T15:00:29.138Z,95994.84
2023-05-05T15:02:55.797Z,95994.09
2023-05-05T15:05:22.444Z,95992.44
2023-05-05T15:07:49.097Z,95988.75
2023-05-05T15:10:15.828Z,95999.00
2023-05-05T15:12:43.098Z,96000.59
2023-05-05T15:15:10.794Z,96002.34
2023-05-05T15:17:39.013Z,95992.75
2023-05-05T15:20:06.809Z,95994.88
2023-05-05T15:22:33.932Z,95999.31
2023-05-05T15:25:01.279Z,96002.03
2023-05-05T15:27:28.078Z,95997.50
2023-05-05T15:29:55.323Z,96001.75
2023-05-05T15:32:22.115Z,95999.53
2023-05-05T15:34:50.352Z,95987.34
2023-05-05T15:37:17.290Z,95993.28
2023-05-05T15:39:44.014Z,95992.16
2023-05-05T15:42:10.722Z,95989.03
2023-05-05T15:44:37.627Z,95988.00
2023-05-05T15:47:05.083Z,95988.84
2023-05-05T15:49:31.810Z,95984.16
2023-05-05T15:51:58.496Z,95978.81
2023-05-05T15:54:25.184Z,95978.97
2023-05-05T15:56:51.803Z,95982.88
2023-05-05T15:59:19.256Z,95980.59
2023-05-05T16:01:46.441Z,95978.34
2023-05-05T16:04:13.233Z,95978.00
2023-05-05T16:06:39.870Z,95979.56
2023-05-05T16:09:06.532Z,95979.97
2023-05-05T16:11:33.229Z,95977.75
2023-05-05T16:13:59.821Z,95973.00
2023-05-05T16:16:26.457Z,95966.81
2023-05-05T16:18:53.125Z,95964.91
2023-05-05T16:21:19.781Z,95962.22
2023-05-05T16:23:46.684Z,95971.28
2023-05-05T16:26:13.274Z,95972.56
2023-05-05T16:28:39.886Z,95965.91
2023-05-05T16:31:06.517Z,95968.72
2023-05-05T16:33:33.139Z,95957.75
2023-05-05T16:35:59.801Z,95960.13
2023-05-05T16:38:26.409Z,95954.63
2023-05-05T16:40:53.028Z,95945.28
2023-05-05T16:43:19.741Z,95955.50
2023-05-05T16:45:46.652Z,95951.50
2023-05-05T16:48:14.752Z,95945.25
2023-05-05T16:50:41.529Z,95949.25
2023-05-05T16:53:09.220Z,95942.56
2023-05-05T16:55:36.955Z,95940.25
2023-05-05T16:58:04.806Z,95939.09
2023-05-05T17:00:31.487Z,95934.38
2023-05-05T17:02:58.253Z,95935.59
2023-05-05T17:05:24.936Z,95938.72
2023-05-05T17:07:52.240Z,95936.75
2023-05-05T17:10:18.900Z,95934.38
2023-05-05T17:12:45.804Z,95930.50
2023-05-05T17:15:12.478Z,95934.00
2023-05-05T17:17:40.550Z,95932.84
2023-05-05T17:20:09.398Z,95936.75
2023-05-05T17:22:36.331Z,95936.00
2023-05-05T17:25:03.324Z,95937.53
2023-05-05T17:27:29.935Z,95934.84
2023-05-05T17:29:56.613Z,95939.53
2023-05-05T17:32:23.391Z,95936.00
2023-05-05T17:34:50.063Z,95930.91
2023-05-05T17:37:16.684Z,95939.13
2023-05-05T17:39:43.325Z,95943.84
2023-05-05T17:42:09.969Z,95946.94
2023-05-05T17:44:36.848Z,95935.19
2023-05-05T17:47:04.041Z,95949.69
2023-05-05T17:49:30.803Z,95953.22
2023-05-05T17:51:57.404Z,95959.50
2023-05-05T17:54:24.058Z,95957.91
2023-05-05T17:56:50.689Z,95949.69
2023-05-05T17:59:17.548Z,95961.03
2023-05-05T18:01:44.358Z,95961.41
2023-05-05T18:04:11.041Z,95945.34
2023-05-05T18:06:37.711Z,95948.47
2023-05-05T18:09:04.677Z,95942.97
2023-05-05T18:11:32.117Z,95937.34
2023-05-05T18:13:58.814Z,95951.13
2023-05-05T18:16:25.864Z,95946.03
2023-05-05T18:18:52.658Z,95937.53
2023-05-05T18:21:19.421Z,95934.38
2023-05-05T18:23:46.138Z,95937.50
2023-05-05T18:26:12.751Z,95938.28
2023-05-05T18:28:39.341Z,95937.44
2023-05-05T18:31:06.299Z,95935.13
2023-05-05T18:33:33.119Z,95939.84
2023-05-05T18:35:59.724Z,95925.00
2023-05-05T18:38:26.374Z,95921.44
2023-05-05T18:40:53.057Z,95921.84
2023-05-05T18:43:19.786Z,95917.13
2023-05-05T18:45:46.493Z,95920.63
2023-05-05T18:48:13.241Z,95926.13
2023-05-05T18:50:39.877Z,95917.44
2023-05-05T18:53:06.592Z,95907.50
2023-05-05T18:55:33.411Z,95906.78
2023-05-05T18:58:00.033Z,95897.41
2023-05-05T19:00:26.668Z,95896.53
2023-05-05T19:02:54.225Z,95899.91
2023-05-05T19:05:21.062Z,95898.25
2023-05-05T19:07:47.833Z,95901.00
2023-05-05T19:10:14.437Z,95895.47
2023-05-05T19:12:41.090Z,95893.75
2023-05-05T19:15:08.452Z,95898.75
2023-05-05T19:17:35.272Z,95896.34
2023-05-05T19:20:02.090Z,95898.53
2023-05-05T19:22:28.754Z,95909.00
2023-05-05T19:24:55.418Z,95904.75
2023-05-05T19:27:22.070Z,95904.28
2023-05-05T19:29:52.803Z,95906.66
2023-05-05T19:32:21.113Z,95889.75
2023-05-05T19:34:48.061Z,95893.34
2023-05-05T19:37:14.848Z,95892.16
2023-05-05T19:39:44.343Z,95905.34
2023-05-05T19:42:11.048Z,95910.66
2023-05-05T19:44:37.716Z,95907.41
2023-05-05T19:47:04.804Z,95917.88
2023-05-05T19:49:31.573Z,95911.53
2023-05-05T19:51:58.969Z,95928.09
2023-05-05T19:54:25.783Z,95933.44
2023-05-05T19:56:52.981Z,95937.78
2023-05-05T19:59:20.427Z,95939.69
2023-05-05T20:01:47.048Z,95937.31
2023-05-05T20:04:13.744Z,95929.34
2023-05-05T20:06:40.504Z,95927.94
2023-05-05T20:09:07.348Z,95922.94
2023-05-05T20:11:34.452Z,95921.22
2023-05-05T20:14:01.532Z,95914.09
2023-05-05T20:16:28.352Z,95913.72
2023-05-05T20:18:55.024Z,95911.03
2023-05-05T20:21:21.707Z,95911.84
2023-05-05T20:23:48.400Z,95923.91
2023-05-05T20:26:15.080Z,95921.31
2023-05-05T20:28:45.281Z,95921.41
2023-05-05T20:31:13.549Z,95919.88
2023-05-05T20:33:40.225Z,95923.09
2023-05-05T20:36:07.378Z,95916.72
2023-05-05T20:38:34.051Z,95925.50
2023-05-05T20:41:00.814Z,95933.81
2023-05-05T20:43:27.578Z,95941.84
2023-05-05T20:45:54.250Z,95943.19
2023-05-05T20:48:21.014Z,95955.13
2023-05-05T20:50:47.680Z,95954.81
2023-05-05T20:53:15.020Z,95960.81
2023-05-05T20:55:41.845Z,95951.03
2023-05-05T20:58:08.513Z,95957.47
2023-05-05T21:00:35.579Z,95960.19
2023-05-05T21:03:05.365Z,95963.78
2023-05-05T21:05:32.660Z,95972.22
2023-05-05T21:08:00.837Z,95982.59
2023-05-05T21:10:29.116Z,95994.78
2023-05-05T21:12:56.036Z,96015.22
2023-05-05T21:15:22.959Z,96048.56
2023-05-05T21:17:49.706Z,96134.03
2023-05-05T21:20:17.067Z,96171.31
2023-05-05T21:22:43.772Z,96191.34
2023-05-05T21:25:11.541Z,96200.88
2023-05-05T21:27:38.248Z,96218.63
2023-05-05T21:30:05.426Z,96252.41
2023-05-05T21:32:32.142Z,96260.06
2023-05-05T21:34:58.806Z,96256.06
2023-05-05T21:37:25.441Z,96268.88
2023-05-05T21:39:52.128Z,96275.00
2023-05-05T21:42:19.921Z,96284.75
2023-05-05T21:44:46.590Z,96279.81
2023-05-05T21:47:13.188Z,96289.81
2023-05-05T21:49:39.822Z,96292.06
2023-05-05T21:52:06.474Z,96301.56
2023-05-05T21:54:33.166Z,96316.19
2023-05-05T21:57:00.345Z,96322.38
2023-05-05T21:59:27.001Z,96342.25
2023-05-05T22:01:53.799Z,96344.75
2023-05-05T22:04:21.106Z,96351.72
2023-05-05T22:06:47.735Z,96367.44
2023-05-05T22:09:14.344Z,96388.38
2023-05-05T22:11:41.037Z,96384.75
2023-05-05T22:14:07.758Z,96382.28
2023-05-05T22:16:34.445Z,96391.72
2023-05-05T22:19:01.679Z,96392.66
2023-05-05T22:21:28.352Z,96388.16
2023-05-05T22:23:54.961Z,96388.38
2023-05-05T22:26:21.578Z,96377.81
2023-05-05T22:28:48.646Z,96369.75
2023-05-05T22:31:16.511Z,96359.91
2023-05-05T22:33:43.792Z,96362.38
2023-05-05T22:36:11.552Z,96363.31
2023-05-05T22:38:38.222Z,96365.78
2023-05-05T22:41:06.656Z,96366.78
2023-05-05T22:43:33.318Z,96370.66
2023-05-05T22:45:59.958Z,96368.78
2023-05-05T22:48:26.854Z,96363.81
2023-05-05T22:50:53.677Z,96356.16
2023-05-05T22:53:20.306Z,96354.84
2023-05-05T22:55:46.948Z,96355.25
2023-05-05T22:58:13.596Z,96347.88
2023-05-05T23:00:40.227Z,96347.59
2023-05-05T23:03:06.855Z,96337.03
2023-05-05T23:05:34.533Z,96330.06
2023-05-05T23:08:01.540Z,96329.63
2023-05-05T23:10:29.238Z,96322.78
2023-05-05T23:12:55.882Z,96316.88
2023-05-05T23:15:22.904Z,96310.22
2023-05-05T23:17:49.614Z,96308.53
2023-05-05T23:20:16.347Z,96301.06
2023-05-05T23:22:42.938Z,96301.72
2023-05-05T23:25:09.876Z,96296.59
2023-05-05T23:27:40.059Z,96290.88
2023-05-05T23:30:11.168Z,96281.06
2023-05-05T23:32:37.997Z,96274.69
2023-05-05T23:35:05.160Z,96268.97
2023-05-05T23:37:31.781Z,96251.81
2023-05-05T23:39:58.477Z,96254.84
2023-05-05T23:42:25.324Z,96240.06
2023-05-05T23:44:52.014Z,96244.66
2023-05-05T23:47:18.657Z,96238.75
2023-05-05T23:49:45.258Z,96235.72
2023-05-05T23:52:13.136Z,96235.88
2023-05-05T23:54:40.175Z,96218.94
2023-05-05T23:57:06.815Z,96211.19
2023-05-05T23:59:33.404Z,96218.22
